Time;durP1;ratioP1;P1;durP2;ratioP2;P2;SDS_P1;SDS_P2;PMS_P1;PMS_P2;Temp;Humidity;BMP_temperature;BMP_pressure;BME280_temperature;BME280_humidity;BME280_pressure;Samples;Min_cycle;Max_cycle;Signal;HPM_P1;HPM_P2
2023/10/16 00:01:20;;;;;;;;;;;;;;;18.55;55.39;100418.53;10326206;28;1231;-72
2023/10/16 00:06:16;;;;;;;;;;;;;;;18.51;55.40;100406.34;10326268;28;1162;-72
2023/10/16 00:11:12;;;;;;;;;;;;;;;18.53;55.53;100398.41;10326486;28;1961;-72
2023/10/16 00:16:09;;;;;;;;;;;;;;;18.54;55.12;100403.59;10326478;28;782;-71
2023/10/16 00:21:05;;;;;;;;;;;;;;;18.54;55.23;100394.81;10326246;28;949;-72
2023/10/16 00:26:01;;;;;;;;;;;;;;;18.53;55.02;100396.59;10326673;28;806;-72
2023/10/16 00:30:57;;;;;;;;;;;;;;;18.50;55.16;100406.44;10326061;28;1898;-72
2023/10/16 00:35:53;;;;;;;;;;;;;;;18.48;55.20;100401.19;10325829;28;771;-71
2023/10/16 00:41:31;;;;;;;;;;;;;;;18.47;55.15;100399.47;10326052;28;1630;-76
2023/10/16 00:46:11;;;;;;;;;;;;;;;18.51;54.79;100394.94;10316285;28;1581;-78
2023/10/16 00:51:09;;;;;;;;;;;;;;;18.53;54.81;100398.41;10325498;28;1971;-80
2023/10/16 00:56:08;;;;;;;;;;;;;;;18.52;55.00;100396.66;10325918;28;867;-79
2023/10/16 01:01:04;;;;;;;;;;;;;;;18.51;55.04;100402.88;10326131;28;848;-79
2023/10/16 01:06:01;;;;;;;;;;;;;;;18.49;55.19;100391.50;10325246;28;865;-79
2023/10/16 01:10:57;;;;;;;;;;;;;;;18.48;55.22;100397.69;10325024;28;1897;-79
2023/10/16 01:15:55;;;;;;;;;;;;;;;18.49;55.23;100384.44;10325056;28;794;-79
2023/10/16 01:20:51;;;;;;;;;;;;;;;18.49;55.06;100379.16;10325002;28;955;-79
2023/10/16 01:25:48;;;;;;;;;;;;;;;18.50;55.25;100385.31;10324826;28;977;-80
2023/10/16 01:30:45;;;;;;;;;;;;;;;18.48;55.20;100374.78;10324648;28;1881;-79
2023/10/16 01:35:41;;;;;;;;;;;;;;;18.46;55.35;100379.25;10332544;28;842;-79
2023/10/16 01:40:37;;;;;;;;;;;;;;;18.47;55.23;100383.66;10332599;28;776;-79
2023/10/16 01:45:34;;;;;;;;;;;;;;;18.48;55.02;100374.78;10328028;28;960;-79
2023/10/16 01:50:30;;;;;;;;;;;;;;;18.49;55.09;100376.50;10329283;28;1902;-79
2023/10/16 01:55:27;;;;;;;;;;;;;;;18.49;55.16;100378.28;10332770;28;855;-79
2023/10/16 02:00:26;;;;;;;;;;;;;;;18.45;55.44;100371.41;10331204;28;831;-79
2023/10/16 02:05:22;;;;;;;;;;;;;;;18.46;55.43;100365.22;10332200;28;964;-79
2023/10/16 02:10:20;;;;;;;;;;;;;;;18.46;55.25;100363.41;10331395;28;1897;-79
2023/10/16 02:15:21;;;;;;;;;;;;;;;18.48;55.12;100364.25;10331282;28;822;-79
2023/10/16 02:20:19;;;;;;;;;;;;;;;18.46;55.29;100358.16;10331083;28;941;-79
2023/10/16 02:25:18;;;;;;;;;;;;;;;18.47;55.44;100365.16;10331453;28;868;-79
2023/10/16 02:35:19;;;;;;;;;;;;;;;18.42;55.33;100356.56;10331168;28;797;-79
2023/10/16 02:40:17;;;;;;;;;;;;;;;18.44;55.45;100351.19;10330292;28;867;-79
2023/10/16 02:45:24;;;;;;;;;;;;;;;18.44;55.37;100344.13;10328876;28;899;-79
2023/10/16 02:50:20;;;;;;;;;;;;;;;18.43;55.35;100352.97;10330395;28;1969;-79
2023/10/16 02:55:16;;;;;;;;;;;;;;;18.43;55.40;100357.41;10329792;28;793;-79
2023/10/16 03:00:33;;;;;;;;;;;;;;;18.39;55.49;100351.34;10329544;28;882;-79
2023/10/16 03:05:29;;;;;;;;;;;;;;;18.39;55.52;100354.00;10329462;28;778;-79
2023/10/16 03:10:26;;;;;;;;;;;;;;;18.40;55.29;100363.66;10329080;28;1893;-80
2023/10/16 03:15:28;;;;;;;;;;;;;;;18.41;55.29;100357.44;10328961;28;823;-79
2023/10/16 03:20:28;;;;;;;;;;;;;;;18.40;55.28;100363.66;10328402;28;839;-79
2023/10/16 03:26:08;;;;;;;;;;;;;;;18.38;55.38;100378.69;10329154;28;889;-79
2023/10/16 03:30:43;;;;;;;;;;;;;;;18.37;55.40;100374.31;10323030;28;1890;-79
2023/10/16 03:35:43;;;;;;;;;;;;;;;18.38;55.59;100365.47;10328197;28;775;-80
2023/10/16 03:40:41;;;;;;;;;;;;;;;18.37;55.33;100366.41;10328469;28;801;-80
2023/10/16 03:45:37;;;;;;;;;;;;;;;18.35;55.59;100368.25;10322483;28;1007;-80
2023/10/16 03:50:38;;;;;;;;;;;;;;;18.35;55.58;100368.25;10325800;28;1910;-79
2023/10/16 03:55:35;;;;;;;;;;;;;;;18.37;55.51;100363.78;10327047;28;845;-79
2023/10/16 04:00:50;;;;;;;;;;;;;;;18.35;55.43;100358.53;10327168;28;840;-79
2023/10/16 04:05:46;;;;;;;;;;;;;;;18.34;55.46;100358.59;10327186;28;889;-79
2023/10/16 04:10:48;;;;;;;;;;;;;;;18.36;55.43;100356.75;10326718;28;1890;-79
2023/10/16 04:20:43;;;;;;;;;;;;;;;18.38;55.46;100347.00;10327053;28;817;-79
2023/10/16 04:26:25;;;;;;;;;;;;;;;18.44;55.18;100349.41;10326849;28;794;-79
2023/10/16 04:30:55;;;;;;;;;;;;;;;18.43;55.41;100342.41;10326256;28;1893;-79
2023/10/16 04:46:22;;;;;;;;;;;;;;;18.46;55.33;100347.59;10300013;28;1246;-80
2023/10/16 04:51:36;;;;;;;;;;;;;;;18.47;55.14;100337.88;10326491;28;1902;-80
2023/10/16 05:02:10;;;;;;;;;;;;;;;18.46;55.29;100337.03;10324967;28;660;-80
2023/10/16 05:07:16;;;;;;;;;;;;;;;18.48;55.04;100324.63;10326118;28;1964;-79
2023/10/16 06:14:57;;;;;;;;;;;;;;;18.45;54.66;100337.97;10323877;28;620;-72
2023/10/16 06:19:53;;;;;;;;;;;;;;;18.47;54.56;100340.53;10328256;28;880;-72
2023/10/16 06:24:49;;;;;;;;;;;;;;;18.42;54.29;100340.72;10330957;28;914;-72
2023/10/16 06:29:51;;;;;;;;;;;;;;;18.40;54.27;100334.63;10331287;28;1902;-72
2023/10/16 06:34:47;;;;;;;;;;;;;;;18.38;54.60;100333.81;10330659;28;880;-72
2023/10/16 06:39:44;;;;;;;;;;;;;;;18.34;54.71;100332.22;10330352;28;758;-70
2023/10/16 06:44:42;;;;;;;;;;;;;;;18.24;55.05;100334.31;10330245;28;821;-69
2023/10/16 06:49:38;;;;;;;;;;;;;;;18.24;54.76;100352.78;10330495;28;1917;-70
2023/10/16 06:54:37;;;;;;;;;;;;;;;18.24;54.76;100358.06;10329874;28;875;-70
2023/10/16 06:59:33;;;;;;;;;;;;;;;18.29;54.73;100357.91;10330648;28;856;-72
2023/10/16 07:04:29;;;;;;;;;;;;;;;18.31;54.81;100348.13;10328686;28;1039;-71
2023/10/16 07:09:36;;;;;;;;;;;;;;;18.32;55.00;100345.44;10323869;28;1961;-72
2023/10/16 07:14:32;;;;;;;;;;;;;;;18.36;55.05;100346.19;10325707;28;783;-72
2023/10/16 07:19:28;;;;;;;;;;;;;;;18.38;54.97;100349.66;10328338;28;888;-72
2023/10/16 07:24:23;;;;;;;;;;;;;;;18.39;55.04;100351.34;10321324;28;1146;-72
2023/10/16 07:29:21;;;;;;;;;;;;;;;18.48;54.53;100353.69;10327257;28;1951;-72
2023/10/16 07:34:17;;;;;;;;;;;;;;;18.50;54.87;100359.78;10328191;28;817;-72
2023/10/16 07:39:13;;;;;;;;;;;;;;;18.51;54.98;100361.47;10328035;28;987;-72
2023/10/16 07:44:09;;;;;;;;;;;;;;;18.56;55.00;100353.41;10322355;28;1050;-72
2023/10/16 07:49:15;;;;;;;;;;;;;;;18.54;55.26;100361.38;10327345;28;1992;-71
2023/10/16 07:54:11;;;;;;;;;;;;;;;18.55;55.24;100363.09;10326403;28;1161;-71
2023/10/16 07:59:07;;;;;;;;;;;;;;;18.57;55.35;100353.31;10326912;28;931;-72
2023/10/16 08:04:05;;;;;;;;;;;;;;;18.62;54.99;100361.09;10326974;28;885;-73
2023/10/16 08:14:16;;;;;;;;;;;;;;;18.61;54.96;100359.38;10325592;28;675;-73
2023/10/16 08:19:15;;;;;;;;;;;;;;;18.65;55.21;100363.59;10325661;28;1016;-72
2023/10/16 08:24:13;;;;;;;;;;;;;;;18.64;55.11;100353.97;10325736;28;881;-72
2023/10/16 08:29:12;;;;;;;;;;;;;;;18.66;54.94;100360.06;10325895;28;1953;-72
2023/10/16 08:34:08;;;;;;;;;;;;;;;18.67;55.12;100364.41;10325368;28;1220;-72
2023/10/16 08:39:10;;;;;;;;;;;;;;;18.58;55.41;100356.84;10326310;28;944;-74
2023/10/16 08:44:06;;;;;;;;;;;;;;;18.47;55.54;100361.63;10324322;28;903;-73
2023/10/16 08:49:02;;;;;;;;;;;;;;;18.43;55.54;100360.03;10326108;28;1914;-73
2023/10/16 08:54:03;;;;;;;;;;;;;;;18.42;55.81;100367.09;10324974;28;790;-73
2023/10/16 08:59:01;;;;;;;;;;;;;;;18.39;55.72;100367.19;10325144;28;862;-73
2023/10/16 09:03:57;;;;;;;;;;;;;;;18.39;55.70;100367.19;10324696;28;974;-73
2023/10/16 09:08:54;;;;;;;;;;;;;;;18.39;55.57;100359.28;10325459;28;1898;-74
2023/10/16 09:13:53;;;;;;;;;;;;;;;18.36;55.65;100356.75;10324446;28;870;-73
2023/10/16 09:18:49;;;;;;;;;;;;;;;18.33;55.50;100363.00;10324951;28;800;-73
2023/10/16 09:23:51;;;;;;;;;;;;;;;18.32;55.44;100360.44;10324223;28;873;-73
2023/10/16 09:28:48;;;;;;;;;;;;;;;18.28;55.65;100358.81;10324855;28;1894;-74
2023/10/16 09:33:44;;;;;;;;;;;;;;;18.27;55.72;100368.50;10323886;28;861;-74
2023/10/16 09:38:42;;;;;;;;;;;;;;;18.27;55.46;100365.88;10325080;28;837;-77
2023/10/16 09:43:40;;;;;;;;;;;;;;;18.32;55.51;100360.44;10324207;28;1258;-73
2023/10/16 09:48:36;;;;;;;;;;;;;;;18.27;55.40;100360.59;10323271;28;1910;-78
2023/10/16 09:53:32;;;;;;;;;;;;;;;18.25;55.60;100364.19;10326992;28;783;-76
2023/10/16 09:58:32;;;;;;;;;;;;;;;18.26;55.66;100360.63;10329871;28;1203;-76
2023/10/16 10:03:29;;;;;;;;;;;;;;;18.25;55.58;100357.13;10331640;28;762;-75
2023/10/16 10:08:27;;;;;;;;;;;;;;;18.24;55.46;100351.94;10330514;28;1894;-75
2023/10/16 10:13:33;;;;;;;;;;;;;;;18.23;55.36;100344.91;10331705;28;926;-75
2023/10/16 10:23:36;;;;;;;;;;;;;;;18.25;55.37;100349.22;10330804;28;801;-77
2023/10/16 10:28:32;;;;;;;;;;;;;;;18.25;55.47;100348.38;10330889;28;1953;-75
2023/10/16 10:33:28;;;;;;;;;;;;;;;18.24;55.52;100347.50;10330497;28;1126;-76
2023/10/16 10:38:24;;;;;;;;;;;;;;;18.32;55.20;100339.31;10330040;28;1061;-72
2023/10/16 10:43:20;;;;;;;;;;;;;;;18.48;55.13;100340.47;10330680;28;863;-72
2023/10/16 10:48:16;;;;;;;;;;;;;;;18.51;55.20;100332.44;10329618;28;1910;-69
2023/10/16 10:53:15;;;;;;;;;;;;;;;18.53;55.12;100333.25;10330437;28;810;-72
2023/10/16 10:58:14;;;;;;;;;;;;;;;18.53;55.12;100320.06;10329449;28;777;-70
2023/10/16 11:03:10;;;;;;;;;;;;;;;18.47;55.60;100316.75;10328755;28;937;-75
2023/10/16 11:13:05;;;;;;;;;;;;;;;18.43;55.54;100305.47;10329294;28;955;-74
2023/10/16 11:18:07;;;;;;;;;;;;;;;18.42;55.38;100301.13;10329587;28;859;-74
2023/10/16 11:23:25;;;;;;;;;;;;;;;18.38;55.81;100304.78;10329430;28;905;-74
2023/10/16 11:28:20;;;;;;;;;;;;;;;18.36;55.60;100296.03;10328284;28;1894;-75
2023/10/16 11:33:16;;;;;;;;;;;;;;;18.35;55.83;100291.69;10329057;28;845;-76
2023/10/16 11:38:19;;;;;;;;;;;;;;;18.32;55.95;100290.03;10328051;28;869;-75
2023/10/16 11:43:19;;;;;;;;;;;;;;;18.29;55.90;100286.66;10326992;28;1167;-74
2023/10/16 11:53:28;;;;;;;;;;;;;;;18.24;56.23;100275.41;10327603;28;926;-68
2023/10/16 11:58:24;;;;;;;;;;;;;;;18.18;56.27;100273.84;10327338;28;813;-73
2023/10/16 12:03:20;;;;;;;;;;;;;;;18.20;55.90;100271.16;10327944;28;798;-73
2023/10/16 12:08:18;;;;;;;;;;;;;;;18.20;56.24;100265.88;10327638;28;1894;-72
2023/10/16 12:13:14;;;;;;;;;;;;;;;18.13;56.45;100266.09;10326687;28;980;-73
2023/10/16 12:18:10;;;;;;;;;;;;;;;18.07;56.28;100260.19;10326335;28;953;-73
2023/10/16 12:23:06;;;;;;;;;;;;;;;18.02;56.23;100260.34;10327074;28;875;-73
2023/10/16 12:28:02;;;;;;;;;;;;;;;18.05;55.71;100265.53;10326376;28;1890;-73
2023/10/16 12:32:59;;;;;;;;;;;;;;;18.11;55.13;100261.81;10326111;28;795;-74
2023/10/16 12:37:55;;;;;;;;;;;;;;;18.03;55.38;100261.22;10326210;28;818;-74
2023/10/16 12:42:53;;;;;;;;;;;;;;;18.02;55.17;100256.84;10326433;28;857;-74
2023/10/16 12:47:51;;;;;;;;;;;;;;;18.03;55.20;100248.88;10326260;28;1961;-73
2023/10/16 12:52:47;;;;;;;;;;;;;;;18.11;54.99;100245.97;10325540;28;953;-74
2023/10/16 12:57:44;;;;;;;;;;;;;;;18.14;54.63;100241.44;10326415;28;797;-74
2023/10/16 13:02:42;;;;;;;;;;;;;;;18.16;54.78;100238.75;10324558;28;1156;-73
2023/10/16 13:07:40;;;;;;;;;;;;;;;18.10;54.94;100239.84;10325038;28;1886;-74
2023/10/16 13:12:39;;;;;;;;;;;;;;;18.09;55.19;100235.47;10325436;28;862;-76
2023/10/16 13:17:35;;;;;;;;;;;;;;;18.11;55.27;100236.28;10325457;28;990;-74
2023/10/16 13:22:31;;;;;;;;;;;;;;;18.14;55.07;100232.66;10324751;28;895;-73
2023/10/16 13:27:27;;;;;;;;;;;;;;;18.18;55.09;100231.63;10326186;28;1953;-74
2023/10/16 13:32:24;;;;;;;;;;;;;;;18.20;55.06;100242.97;10332909;28;747;-73
2023/10/16 13:37:20;;;;;;;;;;;;;;;18.26;55.02;100244.53;10332619;28;879;-73
2023/10/16 13:42:16;;;;;;;;;;;;;;;18.33;54.88;100240.75;10333071;28;786;-73
2023/10/16 13:47:13;;;;;;;;;;;;;;;18.38;55.03;100239.66;10332085;28;1105;-73
2023/10/16 13:52:09;;;;;;;;;;;;;;;18.46;55.08;100230.59;10332047;28;1914;-73
2023/10/16 13:57:06;;;;;;;;;;;;;;;18.52;55.10;100231.22;10332436;28;755;-73
2023/10/16 14:02:03;;;;;;;;;;;;;;;18.62;54.86;100222.00;10331589;28;1039;-74
2023/10/16 14:06:58;;;;;;;;;;;;;;;18.69;55.04;100212.06;10331409;28;867;-71
2023/10/16 14:11:58;;;;;;;;;;;;;;;18.70;54.69;100210.28;10331465;28;1902;-74
2023/10/16 14:16:54;;;;;;;;;;;;;;;18.72;54.62;100211.09;10331635;28;861;-74
2023/10/16 14:21:55;;;;;;;;;;;;;;;18.75;54.49;100205.72;10331038;28;826;-74
2023/10/16 14:26:50;;;;;;;;;;;;;;;18.75;54.52;100198.66;10331054;28;839;-73
2023/10/16 14:31:48;;;;;;;;;;;;;;;18.77;54.51;100201.25;10330534;28;1955;-74
2023/10/16 14:36:48;;;;;;;;;;;;;;;18.72;54.68;100195.25;10330456;28;1613;-73
2023/10/16 14:41:44;;;;;;;;;;;;;;;18.75;54.53;100196.00;10330730;28;854;-73
2023/10/16 14:46:40;;;;;;;;;;;;;;;18.78;54.60;100195.03;10329679;28;1251;-74
2023/10/16 14:51:37;;;;;;;;;;;;;;;18.84;54.63;100184.22;10330408;28;1887;-74
2023/10/16 14:56:42;;;;;;;;;;;;;;;18.86;54.60;100182.38;10330112;28;787;-72
2023/10/16 15:01:38;;;;;;;;;;;;;;;18.84;54.74;100181.59;10329617;28;817;-75
2023/10/16 15:06:34;;;;;;;;;;;;;;;18.70;54.93;100175.97;10329370;28;858;-76
2023/10/16 15:11:30;;;;;;;;;;;;;;;18.69;55.32;100169.81;10329063;28;1898;-73
2023/10/16 15:16:27;;;;;;;;;;;;;;;18.78;55.06;100169.47;10328614;28;929;-73
2023/10/16 15:21:23;;;;;;;;;;;;;;;18.78;54.95;100169.47;10329550;28;829;-74
2023/10/16 15:26:18;;;;;;;;;;;;;;;18.76;55.10;100170.47;10328648;28;890;-74
2023/10/16 15:31:16;;;;;;;;;;;;;;;18.79;55.06;100173.00;10328497;28;1906;-74
2023/10/16 15:36:12;;;;;;;;;;;;;;;18.80;55.01;100169.41;10328287;28;858;-74
2023/10/16 15:41:09;;;;;;;;;;;;;;;18.78;54.96;100168.63;10329059;28;925;-74
2023/10/16 15:46:05;;;;;;;;;;;;;;;18.80;55.01;100172.06;10328083;28;1159;-74
2023/10/16 15:51:01;;;;;;;;;;;;;;;18.76;55.21;100167.84;10327983;28;1921;-74
2023/10/16 15:55:57;;;;;;;;;;;;;;;18.72;55.23;100164.41;10314900;28;948;-78
2023/10/16 16:00:54;;;;;;;;;;;;;;;18.74;55.13;100164.38;10326606;28;1318;-74
2023/10/16 16:05:50;;;;;;;;;;;;;;;18.75;54.95;100166.97;10325964;28;949;-73
2023/10/16 16:10:46;;;;;;;;;;;;;;;18.77;54.87;100158.97;10327525;28;1893;-76
2023/10/16 16:15:42;;;;;;;;;;;;;;;18.74;55.15;100162.56;10326571;28;869;-73
2023/10/16 16:20:38;;;;;;;;;;;;;;;18.74;55.18;100175.78;10327075;28;934;-73
2023/10/16 16:25:37;;;;;;;;;;;;;;;18.74;55.14;100173.13;10327087;28;773;-73
2023/10/16 16:30:32;;;;;;;;;;;;;;;18.76;55.09;100170.47;10327116;28;1957;-73
2023/10/16 16:35:28;;;;;;;;;;;;;;;18.75;55.13;100176.66;10325673;28;1004;-73
2023/10/16 16:40:24;;;;;;;;;;;;;;;18.75;55.23;100182.81;10326653;28;888;-73
2023/10/16 16:45:23;;;;;;;;;;;;;;;18.75;54.88;100179.31;10326656;28;784;-73
2023/10/16 16:50:20;;;;;;;;;;;;;;;18.76;55.01;100181.91;10325256;28;1910;-74
2023/10/16 16:55:16;;;;;;;;;;;;;;;18.75;54.90;100171.38;10326249;28;841;-73
2023/10/16 17:00:18;;;;;;;;;;;;;;;18.77;55.00;100182.75;10325824;28;1044;-74
2023/10/16 17:05:17;;;;;;;;;;;;;;;18.77;55.15;100177.47;10324600;28;845;-73
2023/10/16 17:10:13;;;;;;;;;;;;;;;18.77;54.96;100188.03;10325677;28;1897;-73
2023/10/16 17:15:12;;;;;;;;;;;;;;;18.78;54.84;100184.47;10325307;28;779;-73
2023/10/16 17:20:09;;;;;;;;;;;;;;;18.75;55.13;100189.88;10324901;28;800;-73
2023/10/16 17:25:05;;;;;;;;;;;;;;;18.80;54.84;100203.75;10324961;28;869;-75
2023/10/16 17:30:04;;;;;;;;;;;;;;;18.76;55.09;100203.03;10325442;28;1973;-75
2023/10/16 17:35:00;;;;;;;;;;;;;;;18.67;55.27;100207.78;10324450;28;924;-75
2023/10/16 17:39:57;;;;;;;;;;;;;;;18.62;55.58;100203.53;10324784;28;878;-76
2023/10/16 17:44:54;;;;;;;;;;;;;;;18.61;55.45;100195.69;10325689;28;869;-76
2023/10/16 17:49:50;;;;;;;;;;;;;;;18.63;55.21;100191.19;10324803;28;1918;-75
2023/10/16 17:54:45;;;;;;;;;;;;;;;18.62;55.48;100181.53;10325037;28;818;-75
2023/10/16 17:59:41;;;;;;;;;;;;;;;18.59;55.48;100185.16;10325003;28;822;-75
2023/10/16 18:04:38;;;;;;;;;;;;;;;18.60;55.49;100189.53;10324909;28;964;-75
2023/10/16 18:09:36;;;;;;;;;;;;;;;18.63;55.26;100191.19;10324100;28;1893;-75
2023/10/16 18:14:32;;;;;;;;;;;;;;;18.63;55.47;100196.47;10326901;28;947;-75
2023/10/16 18:19:28;;;;;;;;;;;;;;;18.60;55.47;100192.19;10331708;28;861;-75
2023/10/16 18:24:24;;;;;;;;;;;;;;;18.62;55.23;100187.69;10331122;28;846;-76
2023/10/16 18:29:20;;;;;;;;;;;;;;;18.64;55.16;100181.50;10330998;28;1898;-75
2023/10/16 18:34:18;;;;;;;;;;;;;;;18.68;55.10;100183.06;10320227;28;1104;-78
2023/10/16 18:39:13;;;;;;;;;;;;;;;18.69;55.04;100183.03;10330578;28;875;-75
2023/10/16 18:44:09;;;;;;;;;;;;;;;18.77;54.72;100185.41;10330011;28;893;-76
2023/10/16 18:49:05;;;;;;;;;;;;;;;18.77;54.99;100178.31;10331258;28;1918;-71
2023/10/16 18:54:01;;;;;;;;;;;;;;;18.70;55.15;100181.25;10330762;28;882;-77
2023/10/16 18:58:57;;;;;;;;;;;;;;;18.66;55.22;100183.16;10330345;28;816;-77
2023/10/16 19:03:53;;;;;;;;;;;;;;;18.66;55.41;100190.22;10330985;28;786;-77
2023/10/16 19:08:53;;;;;;;;;;;;;;;18.64;55.39;100192.06;10329481;28;1957;-77
2023/10/16 19:13:49;;;;;;;;;;;;;;;18.67;55.28;100195.44;10329964;28;770;-76
2023/10/16 19:18:45;;;;;;;;;;;;;;;18.69;55.09;100208.56;10329940;28;858;-76
2023/10/16 19:23:41;;;;;;;;;;;;;;;18.67;55.23;100203.34;10328955;28;873;-76
2023/10/16 19:28:37;;;;;;;;;;;;;;;18.66;55.35;100198.13;10327893;28;1902;-79
2023/10/16 19:33:36;;;;;;;;;;;;;;;18.69;55.37;100200.66;10329155;28;888;-74
2023/10/16 19:38:32;;;;;;;;;;;;;;;18.69;55.35;100190.09;10328302;28;1379;-79
2023/10/16 19:43:28;;;;;;;;;;;;;;;18.66;55.52;100188.44;10328657;28;910;-79
2023/10/16 19:48:24;;;;;;;;;;;;;;;18.62;55.44;100184.19;10328164;28;1909;-79
2023/10/16 19:53:20;;;;;;;;;;;;;;;18.60;55.69;100184.25;10327724;28;769;-79
2023/10/16 19:58:16;;;;;;;;;;;;;;;18.57;55.65;100188.78;10328410;28;988;-79
2023/10/16 20:03:15;;;;;;;;;;;;;;;18.53;55.82;100203.03;10327262;28;867;-79
2023/10/16 20:08:11;;;;;;;;;;;;;;;18.50;55.76;100213.72;10327328;28;1960;-79
2023/10/16 20:13:12;;;;;;;;;;;;;;;18.48;55.87;100215.56;10327079;28;1136;-73
2023/10/16 20:18:10;;;;;;;;;;;;;;;18.45;55.85;100219.19;10326704;28;852;-74
2023/10/16 20:23:09;;;;;;;;;;;;;;;18.46;55.85;100220.88;10327278;28;842;-74
2023/10/16 20:28:05;;;;;;;;;;;;;;;18.46;55.81;100212.13;10326954;28;1926;-73
2023/10/16 20:33:01;;;;;;;;;;;;;;;18.45;55.75;100208.63;10326858;28;849;-74
2023/10/16 20:37:57;;;;;;;;;;;;;;;18.44;55.65;100212.16;10326793;28;810;-75
2023/10/16 20:42:56;;;;;;;;;;;;;;;18.43;55.66;100207.81;10326029;28;870;-75
2023/10/16 20:47:51;;;;;;;;;;;;;;;18.42;55.80;100195.53;10325523;28;1917;-75
2023/10/16 20:52:47;;;;;;;;;;;;;;;18.44;55.74;100190.19;10325916;28;766;-74
2023/10/16 20:57:43;;;;;;;;;;;;;;;18.42;55.62;100182.34;10325615;28;830;-74
2023/10/16 21:02:40;;;;;;;;;;;;;;;18.42;55.55;100181.47;10326097;28;908;-74
2023/10/16 21:07:36;;;;;;;;;;;;;;;18.40;55.58;100184.19;10325339;28;1961;-74
2023/10/16 21:12:32;;;;;;;;;;;;;;;18.36;55.93;100187.84;10325945;28;834;-72
2023/10/16 21:17:28;;;;;;;;;;;;;;;18.34;55.87;100189.72;10325237;28;783;-74
2023/10/16 21:22:24;;;;;;;;;;;;;;;18.32;56.03;100189.75;10325137;28;1417;-74
2023/10/16 21:27:20;;;;;;;;;;;;;;;18.31;56.04;100189.78;10322308;28;1191;-73
2023/10/16 21:32:19;;;;;;;;;;;;;;;18.32;55.88;100184.47;10324431;28;1890;-74
2023/10/16 21:37:15;;;;;;;;;;;;;;;18.31;55.97;100181.88;10324214;28;849;-73
2023/10/16 21:42:11;;;;;;;;;;;;;;;18.34;55.80;100179.16;10324488;28;953;-73
2023/10/16 21:47:10;;;;;;;;;;;;;;;18.34;55.98;100179.16;10323611;28;1086;-73
2023/10/16 21:52:05;;;;;;;;;;;;;;;18.35;55.79;100175.56;10331629;28;1914;-73
2023/10/16 21:57:01;;;;;;;;;;;;;;;18.36;55.78;100182.56;10332237;28;833;-75
2023/10/16 22:01:57;;;;;;;;;;;;;;;18.34;55.76;100173.88;10331883;28;798;-74
2023/10/16 22:06:53;;;;;;;;;;;;;;;18.35;55.89;100175.56;10331119;28;882;-73
2023/10/16 22:11:49;;;;;;;;;;;;;;;18.32;55.94;100191.53;10331632;28;1890;-74
2023/10/16 22:16:46;;;;;;;;;;;;;;;18.32;56.03;100192.38;10331246;28;932;-74
2023/10/16 22:21:42;;;;;;;;;;;;;;;18.33;55.94;100190.59;10332006;28;866;-74
2023/10/16 22:26:38;;;;;;;;;;;;;;;18.34;55.79;100187.91;10331242;28;837;-73
2023/10/16 22:31:36;;;;;;;;;;;;;;;18.33;55.70;100172.97;10329923;28;1953;-74
2023/10/16 22:36:32;;;;;;;;;;;;;;;18.32;55.88;100176.56;10330461;28;879;-74
2023/10/16 22:41:28;;;;;;;;;;;;;;;18.30;55.90;100174.91;10330234;28;949;-74
2023/10/16 22:46:25;;;;;;;;;;;;;;;18.31;55.62;100190.69;10330611;28;1485;-73
2023/10/16 22:51:21;;;;;;;;;;;;;;;18.32;55.77;100186.25;10329875;28;1977;-74
2023/10/16 22:56:18;;;;;;;;;;;;;;;18.34;55.86;100179.16;10329559;28;759;-74
2023/10/16 23:01:14;;;;;;;;;;;;;;;18.33;55.77;100185.31;10328876;28;844;-74
2023/10/16 23:06:10;;;;;;;;;;;;;;;18.32;55.95;100178.34;10329166;28;1048;-74
2023/10/16 23:11:39;;;;;;;;;;;;;;;18.35;55.67;100179.06;10329165;28;1894;-74
2023/10/16 23:16:28;;;;;;;;;;;;;;;18.30;55.78;100181.03;10324664;28;1923;-74
2023/10/16 23:21:28;;;;;;;;;;;;;;;18.29;55.73;100168.75;10329203;28;774;-74
2023/10/16 23:26:24;;;;;;;;;;;;;;;18.32;55.69;100168.63;10329470;28;822;-74
2023/10/16 23:31:23;;;;;;;;;;;;;;;18.33;55.64;100165.06;10328663;28;1898;-74
2023/10/16 23:36:25;;;;;;;;;;;;;;;18.32;55.72;100167.78;10329075;28;908;-74
2023/10/16 23:41:40;;;;;;;;;;;;;;;18.28;55.70;100153.84;10328368;28;865;-74
2023/10/16 23:46:36;;;;;;;;;;;;;;;18.27;55.83;100159.19;10328300;28;1179;-75
2023/10/16 23:51:35;;;;;;;;;;;;;;;18.28;55.77;100152.97;10327227;28;1910;-74
2023/10/16 23:56:38;;;;;;;;;;;;;;;18.31;55.60;100152.84;10327583;28;1002;-74
